Airfield :
LOGIN :

Register | Disclaimer

   EN    FR    IT 

 










Legend :    VFR   Marginal VFR   IFR   Intensive IFR   Very Intensive IFR
Visi :
Ceiling :
>= 8 km
>= 3000ft
5 to 8 km
1000 to 3000 ft
1500m to 5 km
500 to 1000 ft
800 to 1500m
200 to 500 ft
< 800m
< 200 ft
Symbols :   Thunderstorms  Fog  Heavy snow  Heavy precipitations  Wind > 20 kt
SIGMETs :     Misc.  Thunderstorms  Icing  Turbulence  Mountain Waves  Volcanic Ashes






- Airport Elevation : 336 ft
- IATA code : GCI


EGJB - Guernsey

CURRENT METAR :
  • 221420Z 08006KT CAVOK 18/13 Q1011

EXPIRED METARs :
  • 221350Z 08007KT 050V110 CAVOK 17/13 Q1012
  • 221320Z 06007KT CAVOK 17/12 Q1012
  • 221250Z 08006KT 030V100 CAVOK 18/12 Q1012
  • 221220Z 06006KT 020V090 CAVOK 17/12 Q1012

TAF TAF EGJB
Valid from the 22 at 15:00 until the 23 at 00:00 UTC


221402Z 2215/2300 03008KT CAVOK
PROB30
TEMPO 2215/2300 VRB03KT 8000 SHRA BKN080CB
ATIS : +44 1481 238 957



MET'MAP, your aeronautical weather chart ! - Copyright ORBIFLY December 2007 - Disclaimer

ORBIFLY MET'MAP TEAM :

Programming & Development : Alexandra Zaïnal
Original concept : Baudouin d'Aumeries
Technical & hardware support : Manuel Goepfert
Assistance : Marc-Olivier Méhu

Contact : metmap@orbifly.com




SOURCES & CREDITS :

   NOAA